createdAt,value
2018-12-29T08:19:07.654Z,2.60
2018-12-29T08:21:38.643Z,3.00
2018-12-29T08:24:09.634Z,3.00
2018-12-29T08:26:40.612Z,3.00
2018-12-29T08:29:11.640Z,1.80
2018-12-29T08:31:42.727Z,2.80
2018-12-29T08:34:13.892Z,2.60
2018-12-29T08:36:44.875Z,2.40
2018-12-29T08:39:16.085Z,3.20
2018-12-29T08:41:47.074Z,3.00
2018-12-29T08:44:18.509Z,3.60
2018-12-29T08:46:49.599Z,2.80
2018-12-29T08:49:20.628Z,1.60
2018-12-29T08:51:51.617Z,1.80
2018-12-29T08:54:22.597Z,2.00
2018-12-29T08:56:53.611Z,2.00
2018-12-29T08:59:24.594Z,2.00
2018-12-29T09:01:55.606Z,0.60
2018-12-29T09:04:26.798Z,1.00
2018-12-29T09:06:57.777Z,2.20
2018-12-29T09:09:28.983Z,3.00
2018-12-29T09:11:59.950Z,6.00
2018-12-29T09:14:30.958Z,9.00
2018-12-29T09:17:02.111Z,10.40
2018-12-29T09:19:33.331Z,6.00
2018-12-29T09:22:04.387Z,8.80
2018-12-29T09:24:36.387Z,6.80
2018-12-29T09:27:07.410Z,8.00
2018-12-29T09:29:38.445Z,7.20
2018-12-29T09:32:09.450Z,7.40
2018-12-29T09:34:40.467Z,5.60
2018-12-29T09:37:11.514Z,6.80
2018-12-29T09:39:42.730Z,7.60
2018-12-29T09:42:14.057Z,5.60
2018-12-29T09:44:45.091Z,4.40
2018-12-29T09:47:19.642Z,3.40
2018-12-29T09:49:48.501Z,3.00
2018-12-29T09:52:19.603Z,2.80
2018-12-29T09:54:50.847Z,2.40
2018-12-29T09:57:21.809Z,2.40
2018-12-29T09:59:52.858Z,2.20
2018-12-29T10:02:23.830Z,2.60
2018-12-29T10:04:54.837Z,2.60
2018-12-29T10:07:25.849Z,2.20
2018-12-29T10:09:57.096Z,2.00
2018-12-29T10:12:28.078Z,2.20
2018-12-29T10:14:59.119Z,2.00
2018-12-29T10:17:30.361Z,2.00
2018-12-29T10:20:01.556Z,2.80
2018-12-29T10:22:32.529Z,2.40
2018-12-29T10:25:04.783Z,1.80
2018-12-29T10:27:35.758Z,1.60
2018-12-29T10:30:07.061Z,2.20
2018-12-29T10:32:38.061Z,2.40
2018-12-29T10:35:09.066Z,2.00
2018-12-29T10:37:40.054Z,2.60
2018-12-29T10:40:11.221Z,3.00
2018-12-29T10:42:42.198Z,3.00
2018-12-29T10:45:14.472Z,3.00
2018-12-29T10:47:45.898Z,1.40
2018-12-29T10:50:17.366Z,2.40
2018-12-29T10:52:48.385Z,2.20
2018-12-29T10:55:19.412Z,3.00
2018-12-29T10:57:50.405Z,3.40
2018-12-29T11:00:21.634Z,1.60
2018-12-29T11:02:52.584Z,2.20
2018-12-29T11:05:23.653Z,2.00
2018-12-29T11:07:54.637Z,1.60
2018-12-29T11:10:25.827Z,0.60
2018-12-29T11:12:56.852Z,1.60
2018-12-29T11:15:27.896Z,2.00
2018-12-29T11:17:59.049Z,2.00
2018-12-29T11:20:30.244Z,1.60
2018-12-29T11:23:01.254Z,1.60
2018-12-29T11:25:32.257Z,2.60
2018-12-29T11:28:03.671Z,1.00
2018-12-29T11:30:34.661Z,1.20
2018-12-29T11:33:05.680Z,1.60
2018-12-29T11:35:36.728Z,1.00
2018-12-29T11:38:07.694Z,1.33
2018-12-29T11:40:38.933Z,2.00
2018-12-29T11:43:09.950Z,1.00
2018-12-29T11:45:40.953Z,2.00
2018-12-29T11:48:11.941Z,2.00
2018-12-29T11:50:43.074Z,2.00
2018-12-29T11:53:14.135Z,1.00
2018-12-29T11:55:46.162Z,1.40
2018-12-29T11:58:17.142Z,1.60
2018-12-29T12:00:48.138Z,1.60
2018-12-29T12:03:19.145Z,3.20
2018-12-29T12:05:50.165Z,1.00
2018-12-29T12:08:21.169Z,1.20
2018-12-29T12:10:52.700Z,2.00
2018-12-29T12:13:23.709Z,0.80
2018-12-29T12:15:54.727Z,1.00
2018-12-29T12:18:25.923Z,1.00
2018-12-29T12:20:57.273Z,1.20
2018-12-29T12:23:28.281Z,1.00
2018-12-29T12:25:59.396Z,1.80
2018-12-29T12:28:30.454Z,1.00
2018-12-29T12:31:01.457Z,1.00
2018-12-29T12:33:32.557Z,0.60
2018-12-29T12:36:03.693Z,1.00
2018-12-29T12:38:34.702Z,1.00
2018-12-29T12:41:05.897Z,1.00
2018-12-29T12:43:36.871Z,1.00
2018-12-29T12:46:08.173Z,1.60
2018-12-29T12:48:39.185Z,0.80
2018-12-29T12:51:10.278Z,0.00
2018-12-29T12:53:41.634Z,1.00
2018-12-29T12:56:12.649Z,0.80
2018-12-29T12:58:43.661Z,1.40
2018-12-29T13:01:15.103Z,1.00
2018-12-29T13:03:46.085Z,1.80
2018-12-29T13:06:17.105Z,1.00
2018-12-29T13:08:48.189Z,0.80
2018-12-29T13:11:19.431Z,2.00
2018-12-29T13:13:50.513Z,2.00
2018-12-29T13:16:21.542Z,1.80
2018-12-29T13:18:53.006Z,0.40
2018-12-29T13:21:24.285Z,1.80
2018-12-29T13:23:55.484Z,1.60
2018-12-29T13:26:26.494Z,0.80
2018-12-29T13:28:57.835Z,0.00
2018-12-29T13:31:28.845Z,0.80
2018-12-29T13:34:00.462Z,0.80
2018-12-29T13:36:32.052Z,0.80
2018-12-29T13:39:03.241Z,0.80
2018-12-29T13:41:34.422Z,1.00
2018-12-29T13:44:05.793Z,0.80
2018-12-29T13:46:36.817Z,0.80
2018-12-29T13:49:07.851Z,1.80
2018-12-29T13:51:38.956Z,1.80
2018-12-29T13:54:09.922Z,0.60
2018-12-29T13:56:40.913Z,0.60
2018-12-29T13:59:11.934Z,1.33
2018-12-29T14:01:42.965Z,1.60
2018-12-29T14:04:13.953Z,1.80
2018-12-29T14:06:44.941Z,1.00
2018-12-29T14:09:15.966Z,1.60
2018-12-29T14:11:47.263Z,1.80
2018-12-29T14:14:18.346Z,1.00
2018-12-29T14:16:49.341Z,1.00
2018-12-29T14:19:20.905Z,0.60
2018-12-29T14:21:52.207Z,1.40
2018-12-29T14:24:23.198Z,0.60
2018-12-29T14:26:54.210Z,0.60
2018-12-29T14:29:25.231Z,0.60
2018-12-29T14:31:56.369Z,1.40
2018-12-29T14:34:27.356Z,1.80
2018-12-29T14:36:58.686Z,1.40
2018-12-29T14:39:29.693Z,1.40
2018-12-29T14:42:00.876Z,1.80
2018-12-29T14:44:32.962Z,1.80
2018-12-29T14:47:04.177Z,1.60
2018-12-29T14:49:36.178Z,1.20
2018-12-29T14:52:07.253Z,1.80
2018-12-29T14:54:38.221Z,1.00
2018-12-29T14:57:09.557Z,1.20
2018-12-29T14:59:40.547Z,1.20
2018-12-29T15:02:11.662Z,1.40
2018-12-29T15:04:44.471Z,2.80
2018-12-29T15:07:15.105Z,1.60
2018-12-29T15:09:46.097Z,1.20
2018-12-29T15:12:17.409Z,1.60
2018-12-29T15:14:48.499Z,2.00
2018-12-29T15:17:19.606Z,1.40
2018-12-29T15:19:50.747Z,0.60
2018-12-29T15:22:22.130Z,1.80
2018-12-29T15:24:53.563Z,1.20
2018-12-29T15:27:24.582Z,1.00
2018-12-29T15:29:55.548Z,1.20
2018-12-29T15:32:26.607Z,1.20
2018-12-29T15:34:57.896Z,1.80
2018-12-29T15:37:28.990Z,1.60
2018-12-29T15:39:59.984Z,2.00
2018-12-29T15:42:31.501Z,2.20
2018-12-29T15:45:02.579Z,1.60
2018-12-29T15:47:33.639Z,2.40
2018-12-29T15:50:04.944Z,1.60
2018-12-29T15:52:36.061Z,1.60
2018-12-29T15:55:07.053Z,1.80
2018-12-29T15:57:38.143Z,2.00
2018-12-29T16:00:09.131Z,1.40
2018-12-29T16:02:40.158Z,1.00
2018-12-29T16:05:11.251Z,1.00
2018-12-29T16:07:43.090Z,1.60
2018-12-29T16:10:14.093Z,1.60
2018-12-29T16:12:45.285Z,1.60
2018-12-29T16:15:16.597Z,1.00
2018-12-29T16:17:47.725Z,2.00
2018-12-29T16:20:18.985Z,1.60
2018-12-29T16:22:50.493Z,1.80
2018-12-29T16:25:21.569Z,1.20
2018-12-29T16:27:52.714Z,2.00
2018-12-29T16:30:23.786Z,1.40
2018-12-29T16:32:55.150Z,1.80
2018-12-29T16:35:26.218Z,2.00
2018-12-29T16:37:57.563Z,3.00
2018-12-29T16:40:28.541Z,0.80
2018-12-29T16:42:59.715Z,2.80
2018-12-29T16:45:31.089Z,2.80
2018-12-29T16:48:02.162Z,2.00
2018-12-29T16:50:33.558Z,2.00
2018-12-29T16:53:04.762Z,2.00
2018-12-29T16:55:36.037Z,1.00
2018-12-29T16:58:07.902Z,2.20
2018-12-29T17:00:39.180Z,2.00
2018-12-29T17:03:10.497Z,2.00
2018-12-29T17:05:41.842Z,2.60
2018-12-29T17:08:13.300Z,2.00
2018-12-29T17:10:44.850Z,2.00
2018-12-29T17:13:17.340Z,2.60
2018-12-29T17:15:48.686Z,1.80
2018-12-29T17:18:19.995Z,2.00
2018-12-29T17:20:51.164Z,1.60
2018-12-29T17:23:22.732Z,0.40
2018-12-29T17:25:54.305Z,1.40
2018-12-29T17:28:26.056Z,2.00
2018-12-29T17:30:57.068Z,1.80
2018-12-29T17:33:28.542Z,2.60
2018-12-29T17:35:59.983Z,1.00
2018-12-29T17:38:31.542Z,1.00
2018-12-29T17:41:03.212Z,1.40
2018-12-29T17:43:34.832Z,2.00
2018-12-29T17:46:06.117Z,1.00
2018-12-29T17:48:37.134Z,1.00
2018-12-29T17:51:08.469Z,2.00
2018-12-29T17:53:47.662Z,2.00
2018-12-29T17:56:12.601Z,1.00
2018-12-29T17:58:44.368Z,1.00
2018-12-29T18:01:15.691Z,1.60
2018-12-29T18:03:46.957Z,1.60
2018-12-29T18:06:18.543Z,2.00
2018-12-29T18:08:49.769Z,2.00
2018-12-29T18:11:21.314Z,2.00
2018-12-29T18:13:52.872Z,0.80
2018-12-29T18:16:24.824Z,1.00
2018-12-29T18:18:56.198Z,2.00
2018-12-29T18:21:27.934Z,1.00
2018-12-29T18:23:59.500Z,1.00
2018-12-29T18:26:30.925Z,1.60
2018-12-29T18:29:02.050Z,1.60
2018-12-29T18:31:33.178Z,1.00
2018-12-29T18:34:04.214Z,2.00
2018-12-29T18:36:35.542Z,1.00
2018-12-29T18:39:07.856Z,2.00
2018-12-29T18:41:38.986Z,1.20
2018-12-29T18:44:10.599Z,1.00
2018-12-29T18:46:41.658Z,1.20
2018-12-29T18:49:12.759Z,1.80
2018-12-29T18:51:43.835Z,2.40
2018-12-29T18:54:14.861Z,1.00
2018-12-29T18:56:45.936Z,1.40
2018-12-29T18:59:17.601Z,1.80
2018-12-29T19:01:48.593Z,1.20
2018-12-29T19:04:19.693Z,2.00
2018-12-29T19:06:51.133Z,2.00
2018-12-29T19:09:22.134Z,5.60
2018-12-29T19:11:53.226Z,0.00
2018-12-29T19:14:24.816Z,8.00
2018-12-29T19:16:57.206Z,10.00
2018-12-29T19:19:28.613Z,10.00
2018-12-29T19:21:59.801Z,13.40
2018-12-29T19:24:30.980Z,10.80
2018-12-29T19:27:02.635Z,10.40
2018-12-29T19:29:34.246Z,8.20
2018-12-29T19:32:06.242Z,9.80
2018-12-29T19:34:38.051Z,11.20
2018-12-29T19:37:10.308Z,10.40
2018-12-29T19:39:42.378Z,9.00
2018-12-29T19:42:14.323Z,9.20
2018-12-29T19:44:45.942Z,12.00
2018-12-29T19:47:17.736Z,23.20
2018-12-29T19:49:53.531Z,77.00
2018-12-29T19:52:22.159Z,109.25
2018-12-29T19:54:53.599Z,252.75
2018-12-29T19:57:25.407Z,429.40
2018-12-29T19:59:56.906Z,328.00
2018-12-29T20:02:28.793Z,828.20
2018-12-29T20:05:00.539Z,708.00
2018-12-29T20:07:31.934Z,596.20
2018-12-29T20:10:03.375Z,665.50
2018-12-29T20:12:34.768Z,589.33
2018-12-29T20:15:06.781Z,503.40
2018-12-29T20:17:38.466Z,446.80
2018-12-29T20:20:09.926Z,463.20
2018-12-29T20:22:41.549Z,431.60
2018-12-29T20:25:13.141Z,402.75
2018-12-29T20:27:42.795Z,339.80
2018-12-29T20:30:11.709Z,318.50
2018-12-29T20:32:40.567Z,410.25
2018-12-29T20:35:09.400Z,336.40
2018-12-29T20:37:38.280Z,344.00
2018-12-29T20:40:07.268Z,227.75
2018-12-29T20:42:36.166Z,185.75
2018-12-29T20:45:05.503Z,192.00
2018-12-29T20:47:35.021Z,174.00
2018-12-29T20:50:09.524Z,178.25
2018-12-29T20:52:34.538Z,139.75
2018-12-29T20:55:03.484Z,139.75
2018-12-29T20:57:32.462Z,123.75
2018-12-29T21:00:01.329Z,113.25
2018-12-29T21:02:30.188Z,87.00
2018-12-29T21:04:59.133Z,107.00
2018-12-29T21:07:28.291Z,79.50
2018-12-29T21:09:57.133Z,82.25
2018-12-29T21:12:25.986Z,84.00
2018-12-29T21:14:54.972Z,119.50
2018-12-29T21:17:23.978Z,80.75
2018-12-29T21:19:52.833Z,90.00
2018-12-29T21:22:21.745Z,67.75
2018-12-29T21:24:50.918Z,70.50
2018-12-29T21:27:20.200Z,59.75
2018-12-29T21:29:49.080Z,51.50
2018-12-29T21:32:18.036Z,58.75
2018-12-29T21:34:47.131Z,48.75
2018-12-29T21:37:16.100Z,42.00
2018-12-29T21:39:45.053Z,48.00
2018-12-29T21:42:13.911Z,42.25
2018-12-29T21:44:42.771Z,43.75
2018-12-29T21:47:13.103Z,41.00
2018-12-29T21:49:42.139Z,36.50
2018-12-29T21:52:11.002Z,36.00
2018-12-29T21:54:39.880Z,27.20
2018-12-29T21:57:08.821Z,28.80
2018-12-29T21:59:37.689Z,26.20
2018-12-29T22:02:07.149Z,28.40
2018-12-29T22:04:37.034Z,26.20
2018-12-29T22:07:06.196Z,32.25
2018-12-29T22:09:35.029Z,31.00
2018-12-29T22:12:03.881Z,31.50
2018-12-29T22:14:32.955Z,29.50
2018-12-29T22:17:01.829Z,30.00
2018-12-29T22:19:30.762Z,28.20
2018-12-29T22:21:59.910Z,29.00
2018-12-29T22:24:28.787Z,27.00
2018-12-29T22:26:58.051Z,24.60
2018-12-29T22:29:27.131Z,24.80
2018-12-29T22:31:56.106Z,20.20
2018-12-29T22:34:25.101Z,20.40
2018-12-29T22:36:54.502Z,20.60
2018-12-29T22:39:23.462Z,22.00
2018-12-29T22:41:52.352Z,16.40
2018-12-29T22:44:21.221Z,16.60
2018-12-29T22:46:50.114Z,14.60
2018-12-29T22:49:19.014Z,16.80
2018-12-29T22:51:47.889Z,19.00
2018-12-29T22:54:17.121Z,16.00
2018-12-29T22:56:46.052Z,17.60
2018-12-29T22:59:14.923Z,18.60
2018-12-29T23:01:43.798Z,18.00
2018-12-29T23:04:12.719Z,15.40
2018-12-29T23:06:41.695Z,13.20
2018-12-29T23:09:10.854Z,16.00
2018-12-29T23:11:39.717Z,11.60
2018-12-29T23:14:08.586Z,12.60
2018-12-29T23:16:37.820Z,8.60
2018-12-29T23:19:07.030Z,8.40
2018-12-29T23:21:36.191Z,7.60
2018-12-29T23:24:05.637Z,6.00
2018-12-29T23:26:35.018Z,6.00
2018-12-29T23:29:04.511Z,8.00
2018-12-29T23:31:34.133Z,4.60
2018-12-29T23:34:03.250Z,4.80
2018-12-29T23:36:32.891Z,5.00
2018-12-29T23:39:02.307Z,5.80
2018-12-29T23:41:33.059Z,4.20
2018-12-29T23:44:02.123Z,5.80
2018-12-29T23:46:31.324Z,3.80
2018-12-29T23:49:00.475Z,2.80
2018-12-29T23:51:29.637Z,3.00
2018-12-29T23:53:58.846Z,3.00
2018-12-29T23:56:28.242Z,2.60
2018-12-29T23:58:57.546Z,2.80
